Time;durP1;ratioP1;P1;durP2;ratioP2;P2;SDS_P1;SDS_P2;PMS_P1;PMS_P2;Temp;Humidity;BMP_temperature;BMP_pressure;BME280_temperature;BME280_humidity;BME280_pressure;Samples;Min_cycle;Max_cycle;Signal;HPM_P1;HPM_P2
2023/03/19 00:00:12;;;;;;;12.27;6.28;;;;;;;;;;5042995;28;20056;-74
2023/03/19 00:02:37;;;;;;;11.27;5.35;;;;;;;;;;5055649;28;20048;-75
2023/03/19 00:05:04;;;;;;;7.85;4.38;;;;;;;;;;5062706;28;20033;-75
2023/03/19 00:07:29;;;;;;;10.90;5.45;;;;;;;;;;5063875;28;20124;-75
2023/03/19 00:09:55;;;;;;;10.90;5.55;;;;;;;;;;5064707;28;20600;-75
2023/03/19 00:12:20;;;;;;;7.82;3.67;;;;;;;;;;5062198;28;20028;-74
2023/03/19 00:14:46;;;;;;;7.85;3.63;;;;;;;;;;5056345;28;20037;-75
2023/03/19 00:17:11;;;;;;;4.28;2.75;;;;;;;;;;5063248;28;20037;-75
2023/03/19 00:19:37;;;;;;;8.73;3.05;;;;;;;;;;5064694;28;20085;-75
2023/03/19 00:22:02;;;;;;;4.57;2.40;;;;;;;;;;5064110;28;20025;-75
2023/03/19 00:24:27;;;;;;;6.80;2.80;;;;;;;;;;5063404;28;20032;-75
2023/03/19 00:26:53;;;;;;;4.47;2.40;;;;;;;;;;5064395;28;20115;-75
2023/03/19 00:29:19;;;;;;;4.93;2.50;;;;;;;;;;5060407;28;20414;-75
2023/03/19 00:31:45;;;;;;;3.65;2.30;;;;;;;;;;5060975;28;20032;-75
2023/03/19 00:34:12;;;;;;;4.03;2.70;;;;;;;;;;5064012;28;20094;-75
2023/03/19 00:36:37;;;;;;;6.85;2.75;;;;;;;;;;5064572;28;20024;-75
2023/03/19 00:39:03;;;;;;;5.70;3.00;;;;;;;;;;5057666;28;20036;-75
2023/03/19 00:41:29;;;;;;;4.43;2.70;;;;;;;;;;5061365;28;20077;-75
2023/03/19 00:43:56;;;;;;;7.75;3.00;;;;;;;;;;5062956;28;20033;-75
2023/03/19 00:46:22;;;;;;;6.82;2.80;;;;;;;;;;5062235;28;20051;-75
2023/03/19 00:48:48;;;;;;;5.18;2.95;;;;;;;;;;5062672;28;20336;-75
2023/03/19 00:51:13;;;;;;;5.15;3.10;;;;;;;;;;5063750;28;20044;-76
2023/03/19 00:53:42;;;;;;;5.13;2.97;;;;;;;;;;5067933;28;20028;-76
2023/03/19 00:56:10;;;;;;;7.30;2.92;;;;;;;;;;5066156;28;20044;-76
2023/03/19 00:58:37;;;;;;;8.93;3.30;;;;;;;;;;5059889;28;20033;-75
2023/03/19 01:01:04;;;;;;;5.32;2.92;;;;;;;;;;5047643;28;20103;-75
2023/03/19 01:03:29;;;;;;;8.65;3.72;;;;;;;;;;5047938;28;20757;-75
2023/03/19 01:05:56;;;;;;;9.70;3.67;;;;;;;;;;5046411;28;20068;-75
2023/03/19 01:08:22;;;;;;;7.00;3.28;;;;;;;;;;5045937;28;20071;-75
2023/03/19 01:10:47;;;;;;;5.57;3.35;;;;;;;;;;5037512;28;20069;-75
2023/03/19 01:13:13;;;;;;;6.97;3.30;;;;;;;;;;5039485;28;20057;-75
2023/03/19 01:15:40;;;;;;;6.05;3.30;;;;;;;;;;5028446;28;20033;-75
2023/03/19 01:18:07;;;;;;;7.72;3.80;;;;;;;;;;5044208;28;20112;-75
2023/03/19 01:20:33;;;;;;;6.18;3.55;;;;;;;;;;5033161;28;20125;-75
2023/03/19 01:22:58;;;;;;;6.57;4.03;;;;;;;;;;5036791;28;20036;-75
2023/03/19 01:25:24;;;;;;;7.88;4.25;;;;;;;;;;5042741;28;20044;-75
2023/03/19 01:27:51;;;;;;;8.45;3.90;;;;;;;;;;5027119;28;20055;-74
2023/03/19 01:30:16;;;;;;;7.35;4.13;;;;;;;;;;5047444;28;20029;-76
2023/03/19 01:32:42;;;;;;;6.07;3.97;;;;;;;;;;5029804;28;20098;-75
2023/03/19 01:35:08;;;;;;;8.50;4.05;;;;;;;;;;5038038;28;20041;-76
2023/03/19 01:37:33;;;;;;;8.98;4.32;;;;;;;;;;5040295;28;20129;-75
2023/03/19 01:39:59;;;;;;;7.40;4.25;;;;;;;;;;5027058;28;20120;-75
2023/03/19 01:42:24;;;;;;;7.90;4.38;;;;;;;;;;5047217;28;20024;-76
2023/03/19 01:44:50;;;;;;;8.00;4.43;;;;;;;;;;5029253;28;20033;-76
2023/03/19 01:47:15;;;;;;;8.02;4.55;;;;;;;;;;5038454;28;20041;-75
2023/03/19 01:49:44;;;;;;;10.35;5.05;;;;;;;;;;5025813;28;20045;-75
2023/03/19 01:52:11;;;;;;;9.07;4.57;;;;;;;;;;5028015;28;20048;-75
2023/03/19 01:54:36;;;;;;;9.57;5.28;;;;;;;;;;5046819;28;20025;-75
2023/03/19 01:57:05;;;;;;;10.57;5.35;;;;;;;;;;5044342;28;20048;-75
2023/03/19 01:59:38;;;;;;;12.07;5.00;;;;;;;;;;5047215;28;20029;-75
2023/03/19 02:02:25;;;;;;;10.15;5.55;;;;;;;;;;5037712;28;20128;-75
2023/03/19 02:04:55;;;;;;;11.32;5.65;;;;;;;;;;5031237;28;20039;-75
2023/03/19 02:07:20;;;;;;;10.75;5.57;;;;;;;;;;5045605;28;20071;-75
2023/03/19 02:09:46;;;;;;;9.82;5.45;;;;;;;;;;5046634;28;20025;-75
2023/03/19 02:12:12;;;;;;;11.05;6.50;;;;;;;;;;5026939;28;20034;-76
2023/03/19 02:14:37;;;;;;;13.68;6.97;;;;;;;;;;5027532;28;20045;-75
2023/03/19 02:17:05;;;;;;;13.40;5.70;;;;;;;;;;5026023;28;20400;-75
2023/03/19 02:20:05;;;;;;;10.98;5.68;;;;;;;;;;5032105;28;20033;-75
2023/03/19 02:22:30;;;;;;;11.45;5.53;;;;;;;;;;5046188;28;20029;-75
2023/03/19 02:25:05;;;;;;;13.00;6.40;;;;;;;;;;5045577;28;20024;-75
2023/03/19 02:27:31;;;;;;;11.38;5.68;;;;;;;;;;5030576;28;20030;-75
2023/03/19 02:29:56;;;;;;;12.07;5.93;;;;;;;;;;5042385;28;20036;-75
2023/03/19 02:32:22;;;;;;;11.77;5.82;;;;;;;;;;5045851;28;20044;-76
2023/03/19 02:34:47;;;;;;;10.77;5.75;;;;;;;;;;5046216;28;20495;-75
2023/03/19 02:37:20;;;;;;;12.55;6.78;;;;;;;;;;5045608;28;20084;-75
2023/03/19 02:40:03;;;;;;;18.90;6.47;;;;;;;;;;5046127;28;20055;-76
2023/03/19 02:42:29;;;;;;;13.00;6.65;;;;;;;;;;5045295;28;20357;-75
2023/03/19 02:44:55;;;;;;;16.27;6.60;;;;;;;;;;5044828;28;20252;-76
2023/03/19 02:47:21;;;;;;;17.33;7.43;;;;;;;;;;5045961;28;20504;-75
2023/03/19 02:49:46;;;;;;;14.10;6.95;;;;;;;;;;5045396;28;20059;-75
2023/03/19 02:52:12;;;;;;;15.98;7.15;;;;;;;;;;5046021;28;20037;-75
2023/03/19 02:54:37;;;;;;;14.13;7.40;;;;;;;;;;5044555;28;20029;-75
2023/03/19 02:57:03;;;;;;;15.27;7.32;;;;;;;;;;5045163;28;20033;-75
2023/03/19 02:59:28;;;;;;;17.35;7.93;;;;;;;;;;5045505;28;20045;-76
2023/03/19 03:01:53;;;;;;;15.48;7.63;;;;;;;;;;5045256;28;20036;-75
2023/03/19 03:04:19;;;;;;;16.08;6.68;;;;;;;;;;5043906;28;20041;-75
2023/03/19 03:06:45;;;;;;;15.25;7.53;;;;;;;;;;5039608;28;20025;-76
2023/03/19 03:09:11;;;;;;;16.98;7.00;;;;;;;;;;5042658;28;20033;-75
2023/03/19 03:11:37;;;;;;;14.10;6.30;;;;;;;;;;5026287;28;20042;-75
2023/03/19 03:14:02;;;;;;;14.50;6.10;;;;;;;;;;5031972;28;20037;-75
2023/03/19 03:16:28;;;;;;;15.32;7.00;;;;;;;;;;5045630;28;20500;-76
2023/03/19 03:18:53;;;;;;;16.98;7.55;;;;;;;;;;5044113;28;20025;-75
2023/03/19 03:21:20;;;;;;;15.07;6.65;;;;;;;;;;5046675;28;20032;-75
2023/03/19 03:23:47;;;;;;;13.00;6.80;;;;;;;;;;5033093;28;20053;-76
2023/03/19 03:26:12;;;;;;;12.80;6.22;;;;;;;;;;5038471;28;20033;-75
2023/03/19 03:28:37;;;;;;;14.98;6.53;;;;;;;;;;5045842;28;20506;-75
2023/03/19 03:31:03;;;;;;;12.93;5.70;;;;;;;;;;5045379;28;20021;-75
2023/03/19 03:33:28;;;;;;;16.20;5.78;;;;;;;;;;5044443;28;20025;-75
2023/03/19 03:35:53;;;;;;;12.13;5.53;;;;;;;;;;5045872;28;20159;-75
2023/03/19 03:38:19;;;;;;;13.93;5.18;;;;;;;;;;5045893;28;20036;-75
2023/03/19 03:40:44;;;;;;;11.48;5.35;;;;;;;;;;5045313;28;20052;-75
2023/03/19 03:43:10;;;;;;;11.02;4.63;;;;;;;;;;5045632;28;20033;-75
2023/03/19 03:45:36;;;;;;;14.73;5.20;;;;;;;;;;5032003;28;20124;-75
2023/03/19 03:48:01;;;;;;;8.50;4.43;;;;;;;;;;5034200;28;20041;-75
2023/03/19 03:50:27;;;;;;;11.35;4.68;;;;;;;;;;5044120;28;20037;-75
2023/03/19 03:52:52;;;;;;;9.50;4.22;;;;;;;;;;5045353;28;20045;-75
2023/03/19 03:55:17;;;;;;;10.00;5.00;;;;;;;;;;5045181;28;20108;-75
2023/03/19 03:57:43;;;;;;;8.70;4.65;;;;;;;;;;5046027;28;20052;-75
2023/03/19 04:00:09;;;;;;;7.88;4.03;;;;;;;;;;5043873;28;20072;-75
2023/03/19 04:02:35;;;;;;;11.93;4.18;;;;;;;;;;5045249;28;20080;-75
2023/03/19 04:05:00;;;;;;;8.20;4.13;;;;;;;;;;5045112;28;20060;-76
2023/03/19 04:07:26;;;;;;;11.55;4.43;;;;;;;;;;5044105;28;20586;-76
2023/03/19 04:09:51;;;;;;;8.45;4.22;;;;;;;;;;5036281;28;20411;-75
2023/03/19 04:12:16;;;;;;;10.25;3.97;;;;;;;;;;5044487;28;20025;-75
2023/03/19 04:14:42;;;;;;;9.95;4.65;;;;;;;;;;5029593;28;20029;-75
2023/03/19 04:17:08;;;;;;;8.98;4.60;;;;;;;;;;5035988;28;20535;-75
2023/03/19 04:19:33;;;;;;;8.25;3.75;;;;;;;;;;5039216;28;20445;-75
2023/03/19 04:21:58;;;;;;;6.78;3.95;;;;;;;;;;5026746;28;20033;-75
2023/03/19 04:24:24;;;;;;;8.23;4.15;;;;;;;;;;5044453;28;20017;-75
2023/03/19 04:26:51;;;;;;;8.23;3.97;;;;;;;;;;5031418;28;20095;-75
2023/03/19 04:29:17;;;;;;;5.90;3.60;;;;;;;;;;5041104;28;20115;-75
2023/03/19 04:31:44;;;;;;;5.93;3.42;;;;;;;;;;5042010;28;20040;-75
2023/03/19 04:34:09;;;;;;;6.40;3.65;;;;;;;;;;5031521;28;20044;-75
2023/03/19 04:36:35;;;;;;;9.38;4.10;;;;;;;;;;5046656;28;20033;-75
2023/03/19 04:39:00;;;;;;;8.57;4.10;;;;;;;;;;5030422;28;20029;-75
2023/03/19 04:41:26;;;;;;;10.00;4.15;;;;;;;;;;5029171;28;20048;-75
2023/03/19 04:43:51;;;;;;;6.38;3.35;;;;;;;;;;5027191;28;20033;-75
2023/03/19 04:46:16;;;;;;;6.47;3.45;;;;;;;;;;5029406;28;20042;-75
2023/03/19 04:48:42;;;;;;;7.47;3.60;;;;;;;;;;5029133;28;20040;-75
2023/03/19 04:51:08;;;;;;;8.77;4.03;;;;;;;;;;5027607;28;20033;-75
2023/03/19 04:53:34;;;;;;;9.43;4.22;;;;;;;;;;5037742;28;20052;-75
2023/03/19 04:56:00;;;;;;;8.23;4.18;;;;;;;;;;5048186;28;20473;-75
2023/03/19 04:58:26;;;;;;;8.43;4.20;;;;;;;;;;5047243;28;20517;-75
2023/03/19 05:00:52;;;;;;;7.40;3.95;;;;;;;;;;5048766;28;20112;-75
2023/03/19 05:03:17;;;;;;;8.30;4.53;;;;;;;;;;5043317;28;20175;-75
2023/03/19 05:05:43;;;;;;;8.50;4.05;;;;;;;;;;5048509;28;20470;-75
2023/03/19 05:08:09;;;;;;;8.38;4.38;;;;;;;;;;5048367;28;20052;-76
2023/03/19 05:10:36;;;;;;;8.27;3.25;;;;;;;;;;5048058;28;20486;-75
2023/03/19 05:13:01;;;;;;;12.60;4.38;;;;;;;;;;5048229;28;20411;-75
2023/03/19 05:15:27;;;;;;;8.57;3.92;;;;;;;;;;5048351;28;20491;-75
2023/03/19 05:17:52;;;;;;;7.32;3.58;;;;;;;;;;5047599;28;20035;-75
2023/03/19 05:20:18;;;;;;;11.90;4.10;;;;;;;;;;5046985;28;20037;-75
2023/03/19 05:22:45;;;;;;;9.90;3.67;;;;;;;;;;5047309;28;20060;-75
2023/03/19 05:25:11;;;;;;;7.97;3.95;;;;;;;;;;5047199;28;20037;-75
2023/03/19 05:27:36;;;;;;;7.00;3.35;;;;;;;;;;5045258;28;20044;-75
2023/03/19 05:30:02;;;;;;;8.23;4.13;;;;;;;;;;5044127;28;20064;-75
2023/03/19 05:32:28;;;;;;;10.55;4.15;;;;;;;;;;5043300;28;20037;-75
2023/03/19 05:34:53;;;;;;;9.63;3.70;;;;;;;;;;5047499;28;20067;-75
2023/03/19 05:37:19;;;;;;;5.88;3.38;;;;;;;;;;5042116;28;20045;-75
2023/03/19 05:39:44;;;;;;;10.70;3.60;;;;;;;;;;5046349;28;20049;-75
2023/03/19 05:42:10;;;;;;;8.55;3.17;;;;;;;;;;5046772;28;20067;-75
2023/03/19 05:44:35;;;;;;;7.00;3.88;;;;;;;;;;5045315;28;20043;-75
2023/03/19 05:47:01;;;;;;;7.60;3.60;;;;;;;;;;5031724;28;20638;-74
2023/03/19 05:49:26;;;;;;;7.47;3.33;;;;;;;;;;5026915;28;20455;-75
2023/03/19 05:51:51;;;;;;;11.05;3.92;;;;;;;;;;5027754;28;20037;-75
2023/03/19 05:54:17;;;;;;;8.00;3.83;;;;;;;;;;5030464;28;20017;-75
2023/03/19 05:56:42;;;;;;;9.02;3.75;;;;;;;;;;5027022;28;20044;-75
2023/03/19 05:59:07;;;;;;;8.35;3.38;;;;;;;;;;5027419;28;20149;-76
2023/03/19 06:01:33;;;;;;;8.90;3.95;;;;;;;;;;5030323;28;20033;-76
2023/03/19 06:03:58;;;;;;;10.57;4.32;;;;;;;;;;5046741;28;20106;-75
2023/03/19 06:06:24;;;;;;;7.40;3.67;;;;;;;;;;5067631;28;20990;-75
2023/03/19 06:08:49;;;;;;;8.57;4.38;;;;;;;;;;5064784;28;20036;-76
2023/03/19 06:11:14;;;;;;;6.63;3.60;;;;;;;;;;5047224;28;20043;-75
2023/03/19 06:13:42;;;;;;;6.82;3.83;;;;;;;;;;5047097;28;20045;-75
2023/03/19 06:16:08;;;;;;;9.30;3.63;;;;;;;;;;5046790;28;20025;-75
2023/03/19 06:18:33;;;;;;;8.73;4.28;;;;;;;;;;5047342;28;20514;-75
2023/03/19 06:20:58;;;;;;;7.82;4.22;;;;;;;;;;5045529;28;20037;-75
2023/03/19 06:23:24;;;;;;;9.77;4.35;;;;;;;;;;5047544;28;20058;-75
2023/03/19 06:25:49;;;;;;;9.18;4.07;;;;;;;;;;5047208;28;20029;-75
2023/03/19 06:28:15;;;;;;;7.38;3.95;;;;;;;;;;5046979;28;20091;-75
2023/03/19 06:30:41;;;;;;;11.00;4.22;;;;;;;;;;5045421;28;20091;-76
2023/03/19 06:33:06;;;;;;;8.38;4.50;;;;;;;;;;5045238;28;20071;-75
2023/03/19 06:35:32;;;;;;;10.30;4.32;;;;;;;;;;5043959;28;20033;-75
2023/03/19 06:37:57;;;;;;;8.43;4.50;;;;;;;;;;5047441;28;20037;-75
2023/03/19 06:40:23;;;;;;;7.68;3.97;;;;;;;;;;5046443;28;20098;-75
2023/03/19 06:42:48;;;;;;;9.80;4.15;;;;;;;;;;5040945;28;20116;-75
2023/03/19 06:45:18;;;;;;;9.07;4.47;;;;;;;;;;5046391;28;20408;-75
2023/03/19 06:47:45;;;;;;;10.20;4.13;;;;;;;;;;5045521;28;20041;-75
2023/03/19 06:50:12;;;;;;;11.68;4.88;;;;;;;;;;5044824;28;20037;-75
2023/03/19 06:52:37;;;;;;;7.65;4.13;;;;;;;;;;5044038;28;20525;-75
2023/03/19 06:55:04;;;;;;;11.27;4.53;;;;;;;;;;5037473;28;20022;-75
2023/03/19 06:57:29;;;;;;;11.68;4.90;;;;;;;;;;5032641;28;20029;-75
2023/03/19 06:59:55;;;;;;;11.45;5.43;;;;;;;;;;5032421;28;20608;-74
2023/03/19 07:02:21;;;;;;;12.27;5.88;;;;;;;;;;5035213;28;20049;-74
2023/03/19 07:04:46;;;;;;;14.10;5.43;;;;;;;;;;5044928;28;20040;-74
2023/03/19 07:07:11;;;;;;;13.45;5.40;;;;;;;;;;5044443;28;20033;-74
2023/03/19 07:09:36;;;;;;;11.23;5.40;;;;;;;;;;5030716;28;20045;-75
2023/03/19 07:12:02;;;;;;;11.18;5.25;;;;;;;;;;5045209;28;20047;-74
2023/03/19 07:14:27;;;;;;;12.63;5.25;;;;;;;;;;5040710;28;20164;-74
2023/03/19 07:16:53;;;;;;;14.77;5.65;;;;;;;;;;5029847;28;20048;-75
2023/03/19 07:19:18;;;;;;;14.60;5.57;;;;;;;;;;5025551;28;20558;-74
2023/03/19 07:21:44;;;;;;;16.98;5.68;;;;;;;;;;5025163;28;20041;-74
2023/03/19 07:24:09;;;;;;;14.20;6.10;;;;;;;;;;5026020;28;20079;-74
2023/03/19 07:26:35;;;;;;;14.20;6.88;;;;;;;;;;5024310;28;20120;-75
2023/03/19 07:29:00;;;;;;;13.38;6.30;;;;;;;;;;5025161;28;20037;-74
2023/03/19 07:31:26;;;;;;;14.05;6.03;;;;;;;;;;5025636;28;20611;-74
2023/03/19 07:33:51;;;;;;;14.63;5.47;;;;;;;;;;5025061;28;20563;-74
2023/03/19 07:36:17;;;;;;;12.50;5.82;;;;;;;;;;5025897;28;20021;-75
2023/03/19 07:38:42;;;;;;;14.07;5.57;;;;;;;;;;5034416;28;20047;-74
2023/03/19 07:41:07;;;;;;;13.48;5.85;;;;;;;;;;5044989;28;20033;-74
2023/03/19 07:43:33;;;;;;;11.25;5.78;;;;;;;;;;5045017;28;20041;-74
2023/03/19 07:45:59;;;;;;;14.25;5.93;;;;;;;;;;5043428;28;20029;-74
2023/03/19 07:48:25;;;;;;;14.27;5.47;;;;;;;;;;5044810;28;20539;-73
2023/03/19 07:50:50;;;;;;;14.50;5.95;;;;;;;;;;5033472;28;20033;-74
2023/03/19 07:53:16;;;;;;;12.35;5.78;;;;;;;;;;5037041;28;20083;-73
2023/03/19 07:55:41;;;;;;;13.80;6.32;;;;;;;;;;5023243;28;20033;-75
2023/03/19 07:58:06;;;;;;;18.17;6.00;;;;;;;;;;5023972;28;20025;-74
2023/03/19 08:00:32;;;;;;;12.15;5.40;;;;;;;;;;5035142;28;20036;-74
2023/03/19 08:02:57;;;;;;;15.70;7.53;;;;;;;;;;5038606;28;20052;-75
2023/03/19 08:05:24;;;;;;;16.02;6.35;;;;;;;;;;5040353;28;20389;-74
2023/03/19 08:07:50;;;;;;;11.50;6.20;;;;;;;;;;5036644;28;20065;-74
2023/03/19 08:10:16;;;;;;;11.35;5.05;;;;;;;;;;5033256;28;20048;-74
2023/03/19 08:12:41;;;;;;;12.55;5.32;;;;;;;;;;5033931;28;20037;-74
2023/03/19 08:15:09;;;;;;;11.40;5.57;;;;;;;;;;5030819;28;20048;-74
2023/03/19 08:17:37;;;;;;;11.48;5.00;;;;;;;;;;5041333;28;20583;-75
2023/03/19 08:20:07;;;;;;;14.75;6.30;;;;;;;;;;5031158;28;20464;-74
2023/03/19 08:22:34;;;;;;;11.00;4.68;;;;;;;;;;5023300;28;20174;-75
2023/03/19 08:25:00;;;;;;;13.48;5.07;;;;;;;;;;5036734;28;20804;-75
2023/03/19 08:27:26;;;;;;;17.70;4.70;;;;;;;;;;5036601;28;20024;-75
2023/03/19 08:29:51;;;;;;;10.48;4.38;;;;;;;;;;5031867;28;20041;-75
2023/03/19 08:32:17;;;;;;;12.80;4.13;;;;;;;;;;5022655;28;20033;-76
2023/03/19 08:34:42;;;;;;;9.73;4.25;;;;;;;;;;5025055;28;20116;-74
2023/03/19 08:37:07;;;;;;;13.95;5.43;;;;;;;;;;5032682;28;20087;-75
2023/03/19 08:39:33;;;;;;;14.48;5.55;;;;;;;;;;5040007;28;20032;-76
2023/03/19 08:41:59;;;;;;;17.27;5.30;;;;;;;;;;5033438;28;20056;-74
2023/03/19 08:44:24;;;;;;;17.88;5.40;;;;;;;;;;5029887;28;20133;-76
2023/03/19 08:46:50;;;;;;;15.23;4.93;;;;;;;;;;5039337;28;20041;-76
2023/03/19 08:49:15;;;;;;;14.77;5.95;;;;;;;;;;5028776;28;20123;-74
2023/03/19 08:51:41;;;;;;;15.80;4.95;;;;;;;;;;5036157;28;20035;-74
2023/03/19 08:54:06;;;;;;;28.83;8.45;;;;;;;;;;5063032;28;20037;-73
2023/03/19 08:56:31;;;;;;;31.27;10.00;;;;;;;;;;5037065;28;20033;-75
2023/03/19 08:58:57;;;;;;;23.52;9.20;;;;;;;;;;5027111;28;20518;-75
2023/03/19 09:01:23;;;;;;;18.50;5.43;;;;;;;;;;5025687;28;20046;-74
2023/03/19 09:03:48;;;;;;;18.08;5.90;;;;;;;;;;5029246;28;20033;-74
2023/03/19 09:06:13;;;;;;;14.85;6.07;;;;;;;;;;5036336;28;20664;-75
2023/03/19 09:08:39;;;;;;;10.45;5.45;;;;;;;;;;5024072;28;20099;-75
2023/03/19 09:11:05;;;;;;;17.65;6.75;;;;;;;;;;5030658;28;20041;-77
2023/03/19 09:13:31;;;;;;;14.85;6.05;;;;;;;;;;5043003;28;20120;-76
2023/03/19 09:15:56;;;;;;;26.02;12.40;;;;;;;;;;5045566;28;20547;-78
2023/03/19 09:18:25;;;;;;;22.52;9.15;;;;;;;;;;5035620;28;20424;-76
2023/03/19 09:20:53;;;;;;;17.13;7.82;;;;;;;;;;5034606;28;20471;-75
2023/03/19 09:23:20;;;;;;;24.27;9.23;;;;;;;;;;5047111;28;20032;-75
2023/03/19 09:25:45;;;;;;;19.10;8.35;;;;;;;;;;5050368;28;20057;-75
2023/03/19 09:28:11;;;;;;;18.13;7.78;;;;;;;;;;5023907;28;20115;-77
2023/03/19 09:30:37;;;;;;;14.43;7.72;;;;;;;;;;5026065;28;20017;-73
2023/03/19 09:33:03;;;;;;;21.73;8.52;;;;;;;;;;5026061;28;20045;-73
2023/03/19 09:35:30;;;;;;;22.70;7.78;;;;;;;;;;5027376;28;20041;-74
2023/03/19 09:37:59;;;;;;;14.88;8.15;;;;;;;;;;5026235;28;20037;-73
2023/03/19 09:40:35;;;;;;;21.20;8.30;;;;;;;;;;5023936;28;20076;-74
2023/03/19 09:43:19;;;;;;;26.45;9.38;;;;;;;;;;5025777;28;20079;-76
2023/03/19 09:45:46;;;;;;;27.70;10.73;;;;;;;;;;5026008;28;20025;-77
2023/03/19 09:48:17;;;;;;;17.40;9.00;;;;;;;;;;5034316;28;20029;-77
2023/03/19 09:50:42;;;;;;;22.75;9.10;;;;;;;;;;5042711;28;20044;-76
2023/03/19 09:53:28;;;;;;;23.88;8.93;;;;;;;;;;5046780;28;20037;-76
2023/03/19 09:55:57;;;;;;;20.63;8.65;;;;;;;;;;5045720;28;20036;-75
2023/03/19 09:58:30;;;;;;;27.15;10.55;;;;;;;;;;5043236;28;20475;-75
2023/03/19 10:00:57;;;;;;;22.42;9.43;;;;;;;;;;5046328;28;20568;-75
2023/03/19 10:03:45;;;;;;;22.60;9.45;;;;;;;;;;5046858;28;20502;-75
2023/03/19 10:06:39;;;;;;;25.52;9.40;;;;;;;;;;5046812;28;20657;-75
2023/03/19 10:09:31;;;;;;;19.33;7.22;;;;;;;;;;5043835;28;20528;-75
2023/03/19 10:12:28;;;;;;;21.17;8.10;;;;;;;;;;5043492;28;20067;-75
2023/03/19 10:15:07;;;;;;;21.30;8.75;;;;;;;;;;5028621;28;20048;-75
2023/03/19 10:17:40;;;;;;;22.92;6.25;;;;;;;;;;5040069;28;20091;-75
2023/03/19 10:20:18;;;;;;;30.50;10.13;;;;;;;;;;5036563;28;20067;-75
2023/03/19 10:22:48;;;;;;;28.55;10.60;;;;;;;;;;5027021;28;20532;-76
2023/03/19 10:25:24;;;;;;;26.52;9.70;;;;;;;;;;5025165;28;20037;-74
2023/03/19 10:27:57;;;;;;;24.50;10.18;;;;;;;;;;5025871;28;20699;-74
2023/03/19 10:30:24;;;;;;;14.48;7.03;;;;;;;;;;5026246;28;20090;-75
2023/03/19 10:32:56;;;;;;;21.98;6.95;;;;;;;;;;5026107;28;20420;-75
2023/03/19 10:35:26;;;;;;;21.55;8.63;;;;;;;;;;5026019;28;20471;-75
2023/03/19 10:37:54;;;;;;;17.48;7.43;;;;;;;;;;5024630;28;20116;-76
2023/03/19 10:40:36;;;;;;;25.15;8.68;;;;;;;;;;5023214;28;20033;-76
2023/03/19 10:43:19;;;;;;;22.75;8.00;;;;;;;;;;5025986;28;20044;-74
2023/03/19 10:45:45;;;;;;;;;;;;;;;;;;5039071;28;20116;-74
2023/03/19 10:48:14;;;;;;;19.55;7.57;;;;;;;;;;5045708;28;20474;-75
2023/03/19 10:50:52;;;;;;;22.08;8.02;;;;;;;;;;5044667;28;20684;-74
2023/03/19 10:53:18;;;;;;;23.38;8.20;;;;;;;;;;5044255;28;20037;-75
2023/03/19 10:55:52;;;;;;;21.13;7.40;;;;;;;;;;5044450;28;20471;-74
2023/03/19 10:58:21;;;;;;;28.33;8.80;;;;;;;;;;5045197;28;20075;-74
2023/03/19 11:00:48;;;;;;;23.15;7.95;;;;;;;;;;5044098;28;20033;-74
2023/03/19 11:03:32;;;;;;;25.23;9.40;;;;;;;;;;5025528;28;20049;-74
2023/03/19 11:06:22;;;;;;;24.67;7.72;;;;;;;;;;5042401;28;20045;-75
2023/03/19 11:08:55;;;;;;;26.98;8.63;;;;;;;;;;5028126;28;20044;-74
2023/03/19 11:11:22;;;;;;;;;;;;;;;;;;5044622;28;20047;-75
2023/03/19 11:13:48;;;;;;;25.27;8.32;;;;;;;;;;5041104;28;19921;-75
2023/03/19 11:16:13;;;;;;;31.45;9.80;;;;;;;;;;5044925;28;20044;-74
2023/03/19 11:18:39;;;;;;;28.58;8.23;;;;;;;;;;5043861;28;20084;-74
2023/03/19 11:21:08;;;;;;;29.63;9.68;;;;;;;;;;5042995;28;20498;-75
2023/03/19 11:23:39;;;;;;;25.17;7.97;;;;;;;;;;5045167;28;20579;-75
2023/03/19 11:26:04;;;;;;;23.90;8.73;;;;;;;;;;5044714;28;20040;-75
2023/03/19 11:28:33;;;;;;;28.38;9.80;;;;;;;;;;5038894;28;20041;-75
2023/03/19 11:31:14;;;;;;;22.45;9.30;;;;;;;;;;5043129;28;20060;-74
2023/03/19 11:33:56;;;;;;;25.33;8.15;;;;;;;;;;5039782;28;20044;-74
2023/03/19 11:36:45;;;;;;;24.02;9.65;;;;;;;;;;5053540;28;20090;-75
2023/03/19 11:39:26;;;;;;;18.67;7.28;;;;;;;;;;5049526;28;20090;-74
2023/03/19 11:42:24;;;;;;;21.55;8.30;;;;;;;;;;5055781;28;20559;-74
2023/03/19 11:45:15;;;;;;;18.25;8.13;;;;;;;;;;5054108;28;20439;-75
2023/03/19 11:47:43;;;;;;;19.80;7.38;;;;;;;;;;5048697;28;20056;-75
2023/03/19 11:50:17;;;;;;;17.70;6.82;;;;;;;;;;5044786;28;20044;-75
2023/03/19 11:52:48;;;;;;;17.67;7.15;;;;;;;;;;5052252;28;20040;-74
2023/03/19 11:55:24;;;;;;;18.70;7.07;;;;;;;;;;5048996;28;20826;-74
2023/03/19 11:57:59;;;;;;;16.98;6.85;;;;;;;;;;5050051;28;20029;-74
2023/03/19 12:00:42;;;;;;;17.25;7.03;;;;;;;;;;5044712;28;20049;-76
2023/03/19 12:03:39;;;;;;;19.65;7.57;;;;;;;;;;5053739;28;20056;-75
2023/03/19 12:07:03;;;;;;;18.60;7.18;;;;;;;;;;5053017;28;20052;-75
2023/03/19 12:09:48;;;;;;;19.88;6.68;;;;;;;;;;5051583;28;20336;-76
2023/03/19 12:12:33;;;;;;;12.57;5.53;;;;;;;;;;5053119;28;20547;-76
2023/03/19 12:15:18;;;;;;;16.17;6.30;;;;;;;;;;5054658;28;20124;-76
2023/03/19 12:18:28;;;;;;;16.33;5.93;;;;;;;;;;5051332;28;20061;-76
2023/03/19 12:21:04;;;;;;;16.45;6.43;;;;;;;;;;5036497;28;20091;-75
2023/03/19 12:23:58;;;;;;;20.15;6.47;;;;;;;;;;5057871;28;20047;-76
2023/03/19 12:26:41;;;;;;;17.58;7.05;;;;;;;;;;5059257;28;20039;-75
2023/03/19 12:29:15;;;;;;;17.08;6.60;;;;;;;;;;5044087;28;20053;-76
2023/03/19 12:32:01;;;;;;;17.05;7.50;;;;;;;;;;5060690;28;20102;-77
2023/03/19 12:34:49;;;;;;;15.60;6.82;;;;;;;;;;5056792;28;20048;-77
2023/03/19 12:37:24;;;;;;;17.63;6.72;;;;;;;;;;5048701;28;20039;-75
2023/03/19 12:40:28;;;;;;;18.58;7.72;;;;;;;;;;5052094;28;20241;-74
2023/03/19 12:42:57;;;;;;;18.73;7.18;;;;;;;;;;5050132;28;20256;-75
2023/03/19 12:45:37;;;;;;;16.17;7.00;;;;;;;;;;5051301;28;20041;-75
2023/03/19 12:48:22;;;;;;;16.02;6.38;;;;;;;;;;5055344;28;20045;-76
2023/03/19 12:50:50;;;;;;;17.13;6.70;;;;;;;;;;5057606;28;20739;-75
2023/03/19 12:53:41;;;;;;;15.32;6.45;;;;;;;;;;5051887;28;20860;-76
2023/03/19 12:56:13;;;;;;;17.75;6.28;;;;;;;;;;5044742;28;20561;-78
2023/03/19 12:58:52;;;;;;;17.10;6.63;;;;;;;;;;5055641;28;20527;-74
2023/03/19 13:01:24;;;;;;;11.23;5.25;;;;;;;;;;5061065;28;20036;-76
2023/03/19 13:03:58;;;;;;;11.70;5.20;;;;;;;;;;5061662;28;20040;-77
2023/03/19 13:06:47;;;;;;;9.60;4.25;;;;;;;;;;5052578;28;20051;-78
2023/03/19 13:09:26;;;;;;;10.32;5.63;;;;;;;;;;5046099;28;20117;-77
2023/03/19 13:11:58;;;;;;;9.70;4.40;;;;;;;;;;5050054;28;20511;-77
2023/03/19 13:14:33;;;;;;;9.05;4.65;;;;;;;;;;5063695;28;20086;-77
2023/03/19 13:17:16;;;;;;;12.80;4.70;;;;;;;;;;5048761;28;20049;-76
2023/03/19 13:19:53;;;;;;;10.63;5.57;;;;;;;;;;5049221;28;20047;-77
2023/03/19 13:22:33;;;;;;;8.52;4.68;;;;;;;;;;5042663;28;20036;-77
2023/03/19 13:25:00;;;;;;;10.25;4.28;;;;;;;;;;5049945;28;20024;-78
2023/03/19 13:27:31;;;;;;;9.68;4.40;;;;;;;;;;5055790;28;20081;-78
2023/03/19 13:30:08;;;;;;;9.77;4.53;;;;;;;;;;5063279;28;20169;-79
2023/03/19 13:32:37;;;;;;;7.70;4.13;;;;;;;;;;5048944;28;20757;-72
2023/03/19 13:35:41;;;;;;;10.70;4.38;;;;;;;;;;5048412;28;20621;-72
2023/03/19 13:38:14;;;;;;;12.93;4.65;;;;;;;;;;5055691;28;20151;-72
2023/03/19 13:40:51;;;;;;;12.02;4.40;;;;;;;;;;5044379;28;20045;-73
2023/03/19 13:43:29;;;;;;;11.90;5.10;;;;;;;;;;5044414;28;20043;-74
2023/03/19 13:46:10;;;;;;;8.35;4.20;;;;;;;;;;5046940;28;20538;-74
2023/03/19 13:48:45;;;;;;;13.23;5.20;;;;;;;;;;5044977;28;20052;-74
2023/03/19 13:51:16;;;;;;;6.55;2.97;;;;;;;;;;5044625;28;20071;-79
2023/03/19 13:53:51;;;;;;;9.05;3.75;;;;;;;;;;5044702;28;20075;-73
2023/03/19 13:56:16;;;;;;;11.38;5.70;;;;;;;;;;5036265;28;20032;-72
2023/03/19 13:58:50;;;;;;;11.43;4.97;;;;;;;;;;5053239;28;20054;-72
2023/03/19 14:01:25;;;;;;;6.72;3.80;;;;;;;;;;5049719;28;20045;-76
2023/03/19 14:04:02;;;;;;;11.30;4.85;;;;;;;;;;5052068;28;20048;-73
2023/03/19 14:06:33;;;;;;;8.38;4.43;;;;;;;;;;5051395;28;20021;-76
2023/03/19 14:08:59;;;;;;;11.93;6.55;;;;;;;;;;5045633;28;20053;-75
2023/03/19 14:11:30;;;;;;;14.80;5.95;;;;;;;;;;5046265;28;20039;-75
2023/03/19 14:13:59;;;;;;;10.00;4.97;;;;;;;;;;5053167;28;20462;-75
2023/03/19 14:16:30;;;;;;;12.55;6.18;;;;;;;;;;5049666;28;20036;-75
2023/03/19 14:18:59;;;;;;;11.13;6.00;;;;;;;;;;5048473;28;20032;-75
2023/03/19 14:21:41;;;;;;;9.93;4.78;;;;;;;;;;5047875;28;20514;-76
2023/03/19 14:24:40;;;;;;;9.45;4.25;;;;;;;;;;5047535;28;20041;-74
2023/03/19 14:27:26;;;;;;;8.13;3.80;;;;;;;;;;5039130;28;20817;-75
2023/03/19 14:29:53;;;;;;;9.15;4.55;;;;;;;;;;5047820;28;20140;-76
2023/03/19 14:32:27;;;;;;;8.80;4.10;;;;;;;;;;5043443;28;20768;-75
2023/03/19 14:34:53;;;;;;;8.32;4.10;;;;;;;;;;5046872;28;20064;-75
2023/03/19 14:37:21;;;;;;;9.48;5.35;;;;;;;;;;5038323;28;20154;-75
2023/03/19 14:40:01;;;;;;;12.73;5.93;;;;;;;;;;5049025;28;20026;-75
2023/03/19 14:42:33;;;;;;;10.75;4.32;;;;;;;;;;5048644;28;20090;-75
2023/03/19 14:45:32;;;;;;;9.32;4.80;;;;;;;;;;5049359;28;20067;-75
2023/03/19 14:48:06;;;;;;;7.15;3.15;;;;;;;;;;5042875;28;20387;-76
2023/03/19 14:50:50;;;;;;;8.40;3.40;;;;;;;;;;5043773;28;20080;-76